Find this page online at www.coolrunning.com/results/05/ma/Aug9_Americ_set1.shtml

American Express Financial Advisors Good Times 5K Summer Series

Lowell, MA, August 9, 2005

[Overall Female Results | Overall Male Results | 2005 Age Group Rankings | 2005 Female Rankings | 2005 Male Rankings | All Time Age Group Rankings | All Time Female PR Rankings | All Time Male PR Rankings | Week #7 Age Group Winners ]

Overall Results

Temptation 5K

Place Name                Sex Age Hometown     St Div/Tot  Time       Pace  Pts  Total 
===== =================== === === =============== ======== =======    ===== ==== ===== 
    1 SEAN GRIFFIN        M    22 METHUEN MA        1/7    17:52.5     5:46 1000  3799 
    2 LIAM SKINNER        M    39 LOWELL MA         1/17   18:21.1     5:55  974  2455 
    3 ROB BAUER           M    35 NATICK MA         2/17   19:03.7     6:09  937   937 
    4 KEITH GAGNON        M    17 TYNGSBORO MA      1/5    19:07.4     6:10  934   934 
    5 MICHAEL LOISELLE    M    27 TYNGSBORO MA      2/7    19:08.8     6:10  933  6841 
    6 KEVIN MCNAMARA      M    56 NEWTON MA         1/10   19:12.5     6:11  930   930 
    7 STEVEN MURPHY       M    38 WINDHAM NH        3/17   19:42.2     6:21  907  3994 
    8 KARA HAAS           F    34 CHELMSFORD MA     1/14   19:56.7     6:26 1000  2000 
    9 MARK WINTER         M    38 DRACUT MA         4/17   20:16.7     6:32  881  3371 
   10 STEPHEN GENDRON     M    18 LOWELL MA         2/5    20:18.6     6:33  880  1688 
   11 PAUL COUGHLIN       M    38 MARBOROUGH MA     5/17   20:25.8     6:35  874  6244 
   12 JAMES MATOS         M    27 LOWELL MA         3/7    20:26.8 PR  6:35  874  5275 
   13 RAPHAEL LIGONDE     M    37 LOWELL MA         6/17   20:29.5     6:36  872  6221 
   14 FRANK GEORGES       M    27 LOWELL MA         4/7    20:33.2     6:37  869  6854 
   15 NATHAN STEBLETON    M    24 WAYLAND MA        5/7    20:34.9     6:38  868   868 
   16 EDWARD FELLER       M    40 AYER MA           1/11   20:43.7     6:41  862  5040 
   17 DON GATTON          M    55 NASHUA NH         2/10   20:54.9     6:44  854  6406 
   18 MICHAEL COLE        M    37 MARBOROUGH MA     7/17   21:02.3     6:47  849   849 
   19 KIMBERLY MURPHY     F    35 WINDHAM NH        2/14   21:19.4     6:52  935  3302 
   20 DANIEL HOUSTON      M    43 TYNGSBOROUGH MA   2/11   21:22.8     6:53  836  2087 
   21 KEN GOODIN          M    50 LOWELL MA         3/10   21:26.3     6:55  833  5346 
   22 BRETT BRANN         M    29 LAWRENCE MA       6/7    21:30.9 PR  6:56  830  1602 
   23 JOSEPH ANDELLA      M    47 TEWKSBURY MA      3/11   21:31.2     6:56  830  3189 
   24 DANA BREEDEN        M    18 DERRY NH          3/5    21:35.5     6:57  827  3054 
   25 GLENN STEWART       M    55 N CHELMSFORD MA   4/10   21:38.4     6:58  825  1612 
   26 KATHERINE ROBSKY    F    20 SUTTON MA         1/7    21:39.7     6:59  920   920 
   27 WILLIAM LOVELY      M    35 BILLERICA MA      8/17   21:41.5 PR  6:59  824  4163 
   28 RICHARD MOLLOY      M    63 CHELMSFORD MA     1/5    21:43.5     7:00  822  3656 
   29 STEVE KANARACUS     M    60 LOWELL MA         2/5    21:46.0     7:01  821  3116 
   30 ANTHONY GUINTO      M    43 HAMPSTEAD NH      4/11   21:49.8     7:02  818  5689 
   31 JIM BATTS           M    63 ANDOVER MA        3/5    21:56.7 PR  7:04  814  1541 
   32 DAVE LABRODE        M    47 HAVERHILL MA      5/11   22:05.4     7:07  809  5098 
   33 RICHARD SESTOKAS    M    30 LOWELL MA         9/17   22:07.9 PR  7:08  807  5700 
   34 DAVE BREEDEN        M    55 DERRY NH          5/10   22:11.5     7:09  805  4214 
   35 STEPHEN BOUCHER     M    44 N ANDOVER MA      6/11   22:14.3 PR  7:10  803  5566 
   36 DAVID PENN          M    44 CHELMSFORD MA     7/11   22:27.2     7:14  796  1544 
   37 GEORGE BISSON       M    69 HOOKSETT NH       4/5    22:34.0     7:16  792  5826 
   38 CARLOS MARTINEZ     M    31 NASHUA NH        10/17   22:36.9 PR  7:17  790  1976 
   39 MARY DOUVADJIAN     F    51 ANDOVER MA        1/3    22:43.8     7:19  877  4067 
   40 MATTHEW GENDRON     M    15 LOWELL MA         4/5    22:46.7     7:20  784  1507 
   41 MARK SCHOFIELD      M    43 WESTFORD MA       8/11   22:53.8     7:23  780  1478 
   42 JOE LYONS           M    15 TYNGSBORO MA      5/5    22:58.3     7:24  778  1561 
   43 OKOLO SCHWINN-CLANT M    34 METHUEN MA       11/17   22:59.1     7:24  777  4122 
   44 KRISTINA GAGNON     F    17 TYNGSBORO MA      1/2    23:15.1 PR  7:30  857   857 
   45 CAROLYN SALVUCCI    F    18 CHELMSFORD MA     2/2    23:15.5     7:30  857   857 
   46 PETER DENNECHUK     M    53 WESTFORD MA       6/10   23:22.7     7:32  764  3995 
   47 SCOTT STEVENSON     M    51 LOWELL MA         7/10   23:27.3     7:33  762  5488 
   48 TOM FIORE           M    39 NATICK MA        12/17   23:27.7     7:34  761  4075 
   49 KATHY KURDZO        F    43 DUNSTABLE MA      1/8    23:28.3     7:34  849  6396 
   50 CHRISTIE FOX        F    27 METHUEN MA        2/7    23:41.1     7:38  842  4690 
   51 JIM KURDZO          M    45 DUNSTABLE MA      9/11   23:42.6 PR  7:38  753  4589 
   52 ANDREA STAID        F    20 LOWELL MA         3/7    24:04.4     7:45  828  6668 
   53 MATT STORY          M    31 WESTFORD MA      13/17   24:04.8     7:46  742  4525 
   54 MAUREEN SCHWARTZ    F    32 WILMINGTON MA     3/14   24:10.6 PR  7:47  824  3302 
   55 AILEEN MASON        F    35 ANDOVER MA        4/14   24:12.5     7:48  823  4370 
   56 DEMETRI TSATSARONES M    33 LOWELL MA        14/17   24:26.8     7:53  731  2090 
   57 BARRY NEILL         M    51 LONDONDERRY NH    8/10   24:34.2     7:55  727  5276 
   58 KAREN RAPALLO       F    47 WAKEFIELD MA      2/8    24:38.2     7:56  809   809 
   59 JOHN LAMPLOUGH      M    48 CHELMSFORD MA    10/11   24:53.7     8:01  717  1354 
   60 STEVEN AUGER        M    31 NASHUA NH        15/17   25:02.7     8:04  713  1407 
   61 NANCY WHITE         F    43 METHUEN MA        3/8    25:13.1     8:08  790  5363 
   62 BECKY SNYDER        F    28 TEWKSBURY MA      4/7    25:22.1     8:10  786  3849 
   63 CHRISTOPHER CASEY   M    33 N CHELMSFORD MA  16/17   25:30.5     8:13  700  4947 
   64 CASEY MARTIN        F    21 LOWELL MA         5/7    25:32.1 PR  8:14  781  2226 
   65 SARAH DENNECHUK     F    28 WESTFORD MA       6/7    25:55.3     8:21  769  4411 
   66 JEFFREY COLLINS     M    27 CONCORD NH        7/7    25:58.7 PR  8:22  688  1995 
   67 CARRIE CASEY        F    31 N CHELMSFORD MA   5/14   26:00.7     8:23  766  1602 
   68 JESSICA COSTA       F    36 CHELMSFORD MA     6/14   26:30.5 PR  8:32  752  4842 
   69 DALE SCHOFIELD      F    49 WESTFORD MA       4/8    27:27.4     8:51  726  3354 
   70 BETHANY LINSTAD     F    36 LITTLETON MA      7/14   27:29.4     8:51  725  4096 
   71 ROSA TEJADA         F    46 DERRY NH          5/8    27:54.0     8:59  714  5415 
   72 JAMES SHELTON       M    50 LOWELL MA         9/10   28:14.9     9:06  632  4572 
   73 HEATHER TSATSARONES F    30 LOWELL MA         8/14   28:21.0     9:08  703  2951 
   74 CATHARENE CARGILL   F    36 HAVERHILL MA      9/14   28:50.7     9:18  691  4578 
   75 JOANNE DONOVAN      F    44 CHELMSFORD MA     6/8    29:11.7     9:24  683  3457 
   76 ANNMARIE VEITS      F    30 TEWKSBURY MA     10/14   29:42.7 PR  9:34  671  1927 
   77 PAUL RILEY          M    39 GROTON MA        17/17   30:00.6     9:40  595  3652 
   78 PATRICK SHERIDAN    M    44 LOWELL MA        11/11   30:24.7     9:48  587  1767 
   79 AMY FAIR            F    31 TOWNSEND MA      11/14   30:31.2 PR  9:50  653  4784 
   80 JACK KELLEHER       M    61 TEWKSBURY MA      5/5    31:14.0    10:04  572  3984 
   81 CAROLE DOLAN        F    44 PEPPERELL MA      7/8    31:46.7    10:14  627  4915 
   82 ANNE BALDWIN        F    31 LAWRENCE MA      12/14   32:08.7    10:21  620   620 
   83 WILLIAM BROTHWELL   M    54 RAYMOND NH       10/10   32:17.0    10:24  553  2589 
   84 MEGAN MCDERMOTT     F    31 SOUTH BOSTON MA  13/14   32:24.8    10:26  615  3754 
   85 MARCIE QUINLAN      F    32 LOWELL MA        14/14   33:06.6    10:40  602  2147 
   86 SHARON RIVARD       F    53 CHELMSFORD MA     2/3    33:07.5    10:40  602  3476 
   87 DENISE HULSE        F    44 HUDSON NH         8/8    36:03.5    11:37  553  1696 
   88 NANCY PATCH         F    58 CHELMSFORD MA     3/3    37:26.1    12:03  532  3497 
   89 AMY FENTON          F    29 LOWELL MA         7/7    37:48.4    12:11  527  3431 
   90 DIANE BREEDEN       F    49 DERRY NH          9/9    43:33.0    14:02  457   945